Time;durP1;ratioP1;P1;durP2;ratioP2;P2;SDS_P1;SDS_P2;PMS_P1;PMS_P2;Temp;Humidity;BMP_temperature;BMP_pressure;BME280_temperature;BME280_humidity;BME280_pressure;Samples;Min_cycle;Max_cycle;Signal;HPM_P1;HPM_P2
2022/05/31 00:01:34;;;;;;;0.35;0.20;;;;;;;19.62;45.66;101511.31;4888533;29;20067;-77
2022/05/31 00:04:04;;;;;;;0.57;0.30;;;;;;;19.56;45.15;101506.03;4880914;29;20949;-78
2022/05/31 00:06:33;;;;;;;0.57;0.28;;;;;;;19.39;44.06;101512.09;4897583;29;20054;-80
2022/05/31 00:09:01;;;;;;;0.52;0.32;;;;;;;19.31;45.77;101511.19;4887940;29;20120;-80
2022/05/31 00:11:30;;;;;;;1.33;0.80;;;;;;;19.25;45.59;101516.38;4892477;29;20068;-80
2022/05/31 00:13:58;;;;;;;0.80;0.43;;;;;;;19.23;46.69;101513.75;4901067;29;20091;-80
2022/05/31 00:16:26;;;;;;;0.20;0.20;;;;;;;19.16;47.54;101511.97;4895342;29;20070;-80
2022/05/31 00:18:55;;;;;;;0.90;0.47;;;;;;;19.10;49.00;101509.28;4887228;29;20053;-81
2022/05/31 00:21:34;;;;;;;1.23;0.65;;;;;;;19.09;48.70;101509.31;4882879;29;20049;-81
2022/05/31 00:24:02;;;;;;;0.88;0.60;;;;;;;19.07;44.67;101511.03;4902387;29;20048;-80
2022/05/31 00:26:31;;;;;;;1.42;0.65;;;;;;;19.05;45.00;101516.25;4897195;29;20048;-80
2022/05/31 00:28:59;;;;;;;0.22;0.20;;;;;;;19.07;47.39;101516.28;4895623;29;20100;-78
2022/05/31 00:31:28;;;;;;;1.17;0.52;;;;;;;19.07;45.11;101513.66;4892324;29;20089;-79
2022/05/31 00:33:57;;;;;;;1.23;0.80;;;;;;;19.07;44.19;101516.28;4891500;29;20104;-80
2022/05/31 00:36:27;;;;;;;3.20;0.40;;;;;;;19.04;45.56;101517.13;4897281;29;20052;-79
2022/05/31 00:38:57;;;;;;;1.15;0.45;;;;;;;19.03;44.64;101523.22;4888603;29;20091;-78
2022/05/31 00:41:25;;;;;;;0.55;0.43;;;;;;;19.01;45.63;101519.72;4885753;29;20044;-79
2022/05/31 00:43:59;;;;;;;1.98;0.63;;;;;;;18.98;46.66;101520.56;4892894;28;20060;-78
2022/05/31 00:46:32;;;;;;;1.00;0.43;;;;;;;18.95;46.44;101512.69;4893893;29;20522;-77
2022/05/31 00:49:05;;;;;;;0.88;0.70;;;;;;;18.95;44.78;101509.22;4888271;29;20052;-77
2022/05/31 00:51:43;;;;;;;0.40;0.40;;;;;;;18.99;44.02;101514.50;4887978;29;20052;-76
2022/05/31 00:54:15;;;;;;;1.15;0.50;;;;;;;18.96;45.77;101511.81;4889334;29;20128;-77
2022/05/31 00:56:44;;;;;;;;;;;;;;;18.92;46.07;101512.69;4884853;29;20105;-76
2022/05/31 00:59:16;;;;;;;0.60;0.40;;;;;;;18.98;48.86;101506.59;4894277;29;19927;-77
2022/05/31 01:01:47;;;;;;;0.82;0.40;;;;;;;19.05;45.60;101496.16;4893057;29;20045;-76
2022/05/31 01:04:16;;;;;;;0.50;0.40;;;;;;;19.14;46.16;101502.34;4887566;29;20049;-77
2022/05/31 01:06:47;;;;;;;0.55;0.30;;;;;;;19.22;45.13;101498.88;4896354;29;20059;-77
2022/05/31 01:09:15;;;;;;;1.27;0.50;;;;;;;19.31;45.83;101498.06;4899037;29;20571;-77
2022/05/31 01:11:46;;;;;;;0.50;0.40;;;;;;;19.37;44.17;101500.69;4890362;29;20135;-77
2022/05/31 01:14:14;;;;;;;0.40;0.40;;;;;;;19.37;46.42;101484.97;4890395;29;20055;-77
2022/05/31 01:16:58;;;;;;;1.17;0.60;;;;;;;19.38;44.83;101478.84;4887648;29;20134;-77
2022/05/31 01:22:16;;;;;;;0.45;0.38;;;;;;;19.42;45.77;101480.63;4879862;29;20060;-76
2022/05/31 01:24:55;;;;;;;0.80;0.45;;;;;;;19.39;43.79;101485.84;4896800;29;20080;-75
2022/05/31 01:27:39;;;;;;;0.90;0.43;;;;;;;19.41;43.66;101478.00;4886500;29;20511;-75
2022/05/31 01:30:09;;;;;;;0.50;0.40;;;;;;;19.41;44.95;101478.00;4890305;29;20128;-75
2022/05/31 01:32:43;;;;;;;0.80;0.40;;;;;;;19.43;45.93;101474.50;4876094;29;20132;-75
2022/05/31 01:35:18;;;;;;;2.03;0.40;;;;;;;19.41;42.17;101478.00;4879363;29;20092;-76
2022/05/31 01:37:54;;;;;;;0.32;0.30;;;;;;;19.41;43.98;101470.13;4882781;29;20491;-78
2022/05/31 01:40:30;;;;;;;1.00;0.30;;;;;;;19.43;44.55;101479.75;4884141;29;20061;-76
2022/05/31 01:42:58;;;;;;;0.40;0.32;;;;;;;19.44;45.06;101483.25;4891239;29;20128;-75
2022/05/31 01:45:30;;;;;;;1.70;0.70;;;;;;;19.48;45.51;101478.91;4889323;28;20121;-76
2022/05/31 01:48:02;;;;;;;0.57;0.40;;;;;;;19.50;44.59;101482.41;4891189;29;20508;-77
2022/05/31 01:50:31;;;;;;;1.17;0.70;;;;;;;19.51;44.86;101477.16;4898661;29;20079;-76
2022/05/31 01:53:02;;;;;;;1.85;0.70;;;;;;;19.52;43.57;101484.16;4884138;29;20109;-76
2022/05/31 01:55:34;;;;;;;0.60;0.60;;;;;;;19.52;45.30;101484.16;4897006;29;20113;-77
2022/05/31 01:58:05;;;;;;;1.47;0.93;;;;;;;19.45;46.58;101490.25;4884730;29;20129;-77
2022/05/31 02:00:34;;;;;;;1.92;0.50;;;;;;;19.34;46.12;101495.44;4897301;29;20526;-77
2022/05/31 02:03:05;;;;;;;1.58;0.82;;;;;;;19.34;45.48;101486.72;4892525;29;20110;-76
2022/05/31 02:05:34;;;;;;;0.82;0.50;;;;;;;19.31;44.98;101494.53;4894846;29;20081;-76
2022/05/31 02:08:05;;;;;;;1.15;0.57;;;;;;;19.17;44.67;101492.75;4902204;29;20495;-76
2022/05/31 02:10:34;;;;;;;2.58;0.40;;;;;;;19.10;46.04;101501.41;4892525;29;20088;-76
2022/05/31 02:13:02;;;;;;;0.88;0.60;;;;;;;18.90;46.57;101493.44;4893470;29;20144;-76
2022/05/31 02:15:31;;;;;;;1.35;0.30;;;;;;;18.79;47.91;101495.09;4894912;29;20108;-76
2022/05/31 02:17:59;;;;;;;0.93;0.40;;;;;;;18.67;48.64;101494.97;4893493;29;20056;-76
2022/05/31 02:20:28;;;;;;;1.63;0.70;;;;;;;18.54;47.59;101494.88;4894528;29;20108;-76
2022/05/31 02:22:56;;;;;;;0.88;0.50;;;;;;;18.36;48.57;101492.09;4891830;29;20088;-75
2022/05/31 02:25:26;;;;;;;1.75;0.60;;;;;;;18.25;50.09;101501.59;4908799;29;20076;-76
2022/05/31 02:27:55;;;;;;;1.10;0.50;;;;;;;18.15;50.05;101498.00;4898122;29;20452;-76
2022/05/31 02:30:23;;;;;;;0.93;0.30;;;;;;;18.04;49.58;101495.25;4898960;29;20052;-77
2022/05/31 02:32:52;;;;;;;0.70;0.50;;;;;;;17.94;52.06;101490.81;4897589;29;20629;-76
2022/05/31 02:35:20;;;;;;;0.90;0.60;;;;;;;17.84;51.78;101502.03;4899685;29;20143;-77
2022/05/31 02:37:49;;;;;;;1.20;0.43;;;;;;;17.72;51.93;101494.88;4910784;29;20097;-79
2022/05/31 02:40:17;;;;;;;2.17;0.68;;;;;;;17.62;52.12;101506.09;4887933;29;20052;-77
2022/05/31 02:42:47;;;;;;;0.93;0.60;;;;;;;17.51;53.97;101511.19;4888458;29;20100;-78
2022/05/31 02:45:16;;;;;;;2.28;0.50;;;;;;;17.39;54.41;101517.16;4900948;28;20115;-77
2022/05/31 02:47:44;;;;;;;1.13;0.57;;;;;;;17.30;53.29;101511.78;4895009;29;20048;-76
2022/05/31 02:50:13;;;;;;;0.82;0.50;;;;;;;17.18;53.31;101509.88;4885973;29;20118;-77
2022/05/31 02:52:41;;;;;;;0.60;0.40;;;;;;;17.15;54.61;101517.66;4887098;29;20053;-76
2022/05/31 02:55:10;;;;;;;0.68;0.43;;;;;;;17.08;54.36;101513.19;4897088;29;20048;-77
2022/05/31 02:57:38;;;;;;;1.40;0.43;;;;;;;17.01;54.59;101511.34;4894661;29;20048;-77
2022/05/31 03:00:10;;;;;;;1.23;0.40;;;;;;;16.95;55.51;101513.03;4885046;29;20147;-77
2022/05/31 03:02:39;;;;;;;1.30;0.73;;;;;;;16.90;54.93;101512.06;4886893;29;20048;-77
2022/05/31 03:05:08;;;;;;;0.63;0.32;;;;;;;16.83;56.38;101510.19;4896415;29;20080;-78
2022/05/31 03:07:36;;;;;;;2.08;0.63;;;;;;;16.78;57.27;101506.59;4897170;29;20045;-78
2022/05/31 03:10:06;;;;;;;0.80;0.60;;;;;;;16.72;56.69;101510.03;4896358;29;20559;-77
2022/05/31 03:12:36;;;;;;;2.28;0.50;;;;;;;16.61;61.50;101510.69;4882854;29;20089;-76
2022/05/31 03:15:09;;;;;;;2.60;0.70;;;;;;;16.64;59.14;101521.19;4889081;29;20123;-77
2022/05/31 03:17:40;;;;;;;1.10;0.60;;;;;;;16.58;60.06;101523.69;4888045;29;20091;-77
2022/05/31 03:20:12;;;;;;;1.52;0.70;;;;;;;16.54;60.47;101518.44;4890050;29;20084;-79
2022/05/31 03:22:46;;;;;;;1.17;0.63;;;;;;;16.50;59.41;101524.44;4885044;29;20088;-80
2022/05/31 03:25:18;;;;;;;1.40;0.75;;;;;;;16.44;59.54;101532.16;4897451;29;20104;-80
2022/05/31 03:27:47;;;;;;;1.35;0.63;;;;;;;16.36;59.92;101525.06;4895768;29;20125;-79
2022/05/31 03:30:18;;;;;;;1.77;0.52;;;;;;;16.30;61.16;101524.06;4895018;29;20096;-80
2022/05/31 03:32:47;;;;;;;1.15;0.60;;;;;;;16.28;61.59;101528.38;4894953;29;20056;-79
2022/05/31 03:35:15;;;;;;;1.10;0.60;;;;;;;16.26;61.54;101529.22;4895852;29;20128;-80
2022/05/31 03:37:44;;;;;;;1.02;0.65;;;;;;;16.23;62.21;101531.78;4886181;29;20196;-79
2022/05/31 03:40:56;;;;;;;1.40;0.65;;;;;;;16.19;61.47;101529.97;4892442;29;20131;-78
2022/05/31 03:43:03;;;;;;;1.00;0.73;;;;;;;16.13;62.71;101534.22;4887573;29;20048;-78
2022/05/31 03:45:38;;;;;;;1.20;0.60;;;;;;;16.10;61.75;101531.56;4904247;28;20064;-78
2022/05/31 03:48:07;;;;;;;2.17;0.82;;;;;;;16.07;62.51;101534.09;4895610;29;20100;-77
2022/05/31 03:50:38;;;;;;;4.25;0.90;;;;;;;16.03;62.81;101550.53;4896643;29;20196;-79
2022/05/31 03:53:07;;;;;;;2.08;0.50;;;;;;;15.99;62.85;101538.31;4891280;29;20140;-81
2022/05/31 03:55:39;;;;;;;0.63;0.32;;;;;;;15.95;63.67;101540.81;4887184;29;20052;-78
2022/05/31 03:58:08;;;;;;;1.40;0.50;;;;;;;15.90;62.93;101548.56;4890047;29;20567;-77
2022/05/31 04:00:38;;;;;;;1.70;0.40;;;;;;;15.85;62.91;101550.16;4888992;29;20052;-78
2022/05/31 04:03:07;;;;;;;0.57;0.35;;;;;;;15.80;62.88;101557.03;4885981;29;20049;-78
2022/05/31 04:05:35;;;;;;;2.15;0.50;;;;;;;15.73;63.34;101552.53;4897746;29;20107;-78
2022/05/31 04:08:08;;;;;;;0.50;0.30;;;;;;;15.66;63.78;101562.81;4897351;29;20052;-78
2022/05/31 04:10:37;;;;;;;1.08;0.40;;;;;;;15.62;63.47;101557.47;4892918;29;20058;-77
2022/05/31 04:13:06;;;;;;;0.82;0.40;;;;;;;15.55;64.19;101560.81;4889264;29;20049;-78
2022/05/31 04:15:37;;;;;;;1.10;0.43;;;;;;;15.51;64.43;101559.88;4894737;29;20051;-77
2022/05/31 04:18:06;;;;;;;1.60;0.65;;;;;;;15.46;64.81;101561.47;4898368;29;20049;-79
2022/05/31 04:20:37;;;;;;;1.83;0.80;;;;;;;15.41;65.45;101561.38;4895752;29;20535;-77
2022/05/31 04:25:51;;;;;;;1.55;0.65;;;;;;;15.28;66.21;101568.06;4887839;29;20148;-77
2022/05/31 04:28:19;;;;;;;3.30;0.60;;;;;;;15.23;66.15;101564.47;4880326;29;20472;-78
2022/05/31 04:30:49;;;;;;;1.95;0.50;;;;;;;15.19;66.28;101580.00;4879665;29;20049;-79
2022/05/31 04:33:18;;;;;;;2.63;0.65;;;;;;;15.11;66.45;101582.41;4891895;29;20579;-79
2022/05/31 04:35:46;;;;;;;2.78;0.93;;;;;;;15.04;67.51;101581.38;4897625;29;20059;-79
2022/05/31 04:38:15;;;;;;;1.65;0.70;;;;;;;15.01;68.26;101585.66;4901726;29;20135;-78
2022/05/31 04:40:43;;;;;;;2.20;0.75;;;;;;;14.96;67.74;101584.66;4890358;29;20083;-78
2022/05/31 04:43:12;;;;;;;5.13;1.25;;;;;;;14.82;68.62;101582.59;4902831;29;20498;-80
2022/05/31 04:45:40;;;;;;;1.42;0.70;;;;;;;14.81;70.04;101586.03;4896503;28;20064;-79
2022/05/31 04:48:10;;;;;;;2.03;0.60;;;;;;;14.73;71.73;101592.78;4893822;29;20044;-78
2022/05/31 04:50:39;;;;;;;3.33;0.93;;;;;;;14.63;73.55;101589.03;4888446;29;20052;-78
2022/05/31 04:53:07;;;;;;;3.47;0.75;;;;;;;14.55;72.55;101592.28;4889082;29;20084;-80
2022/05/31 04:55:36;;;;;;;0.63;0.40;;;;;;;14.51;71.83;101598.22;4893986;29;20107;-78
2022/05/31 04:58:04;;;;;;;1.83;0.82;;;;;;;14.46;72.41;101601.59;4891158;29;20044;-80
2022/05/31 05:00:33;;;;;;;1.60;0.70;;;;;;;14.38;70.69;101605.69;4893394;29;20044;-79
2022/05/31 05:03:01;;;;;;;1.38;0.65;;;;;;;14.27;73.24;101601.03;4877112;29;20049;-77
2022/05/31 05:05:34;;;;;;;0.88;0.63;;;;;;;14.15;75.01;101617.19;4878399;29;20057;-76
2022/05/31 05:08:02;;;;;;;1.98;0.65;;;;;;;14.07;74.03;101608.28;4892742;29;20056;-77
2022/05/31 05:10:31;;;;;;;1.35;0.60;;;;;;;14.00;73.87;101605.50;4885282;29;20074;-77
2022/05/31 05:12:59;;;;;;;0.80;0.60;;;;;;;14.00;73.91;101607.22;4883835;29;20056;-77
2022/05/31 05:15:27;;;;;;;0.77;0.55;;;;;;;13.99;75.09;101611.53;4891946;29;20109;-77
2022/05/31 05:17:56;;;;;;;1.73;1.15;;;;;;;13.95;75.80;101609.69;4883037;29;20048;-77
2022/05/31 05:20:24;;;;;;;1.00;0.68;;;;;;;13.93;76.68;101608.75;4878787;29;20129;-77
2022/05/31 05:22:54;;;;;;;1.60;0.65;;;;;;;13.89;75.56;101601.69;4882847;29;20452;-77
2022/05/31 05:25:23;;;;;;;1.10;0.50;;;;;;;13.80;74.96;101596.22;4901760;29;20052;-77
2022/05/31 05:27:51;;;;;;;1.50;0.85;;;;;;;13.71;75.54;101598.56;4891891;29;20285;-77
2022/05/31 05:33:05;;;;;;;1.25;0.60;;;;;;;13.64;75.65;101597.47;4891839;29;20079;-78
2022/05/31 05:35:34;;;;;;;2.10;0.73;;;;;;;13.59;74.50;101591.28;4893874;29;20613;-77
2022/05/31 05:38:06;;;;;;;2.55;1.02;;;;;;;13.55;74.84;101605.88;4903792;29;20109;-78
2022/05/31 05:40:35;;;;;;;1.20;0.63;;;;;;;13.48;74.79;101603.94;4880809;29;20060;-78
2022/05/31 05:43:03;;;;;;;1.13;0.70;;;;;;;13.46;75.61;101604.72;4879863;29;20089;-78
2022/05/31 05:45:33;;;;;;;1.38;0.60;;;;;;;13.40;75.82;101603.69;4893003;28;20064;-78
2022/05/31 05:48:01;;;;;;;1.00;0.50;;;;;;;13.34;75.75;101606.09;4880535;29;20128;-77
2022/05/31 05:50:30;;;;;;;1.77;0.60;;;;;;;13.30;75.35;101599.03;4879167;29;20567;-77
2022/05/31 05:53:02;;;;;;;1.70;1.02;;;;;;;13.30;76.89;101600.75;4878081;29;20041;-76
2022/05/31 05:55:32;;;;;;;3.15;0.60;;;;;;;13.27;77.92;101611.03;4881482;29;20083;-77
2022/05/31 05:58:01;;;;;;;1.48;0.60;;;;;;;13.20;79.69;101609.94;4880026;29;20097;-77
2022/05/31 06:00:29;;;;;;;0.82;0.60;;;;;;;13.13;77.47;101613.19;4879594;29;20060;-78
2022/05/31 06:03:04;;;;;;;0.45;0.40;;;;;;;13.08;78.29;101606.91;4879723;29;20269;-77
2022/05/31 06:05:33;;;;;;;1.65;0.98;;;;;;;13.05;79.17;101609.44;4883100;29;20540;-78
2022/05/31 06:08:06;;;;;;;2.30;0.63;;;;;;;13.05;79.14;101599.91;4900160;29;20111;-77
2022/05/31 06:10:39;;;;;;;3.10;0.70;;;;;;;12.99;76.46;101607.53;4905337;29;20055;-76
2022/05/31 06:13:12;;;;;;;4.65;1.17;;;;;;;12.93;77.22;101603.00;4887408;29;20049;-77
2022/05/31 06:15:44;;;;;;;2.03;0.60;;;;;;;12.88;78.75;101595.91;4882566;29;20496;-77
2022/05/31 06:18:17;;;;;;;1.42;0.68;;;;;;;12.84;78.38;101607.00;4877684;29;20515;-76
2022/05/31 06:20:48;;;;;;;0.98;0.55;;;;;;;12.79;79.40;101592.16;4891972;29;20503;-76
2022/05/31 06:23:17;;;;;;;0.82;0.60;;;;;;;12.74;77.85;101596.31;4886500;29;20088;-76
2022/05/31 06:25:47;;;;;;;3.30;0.70;;;;;;;12.70;77.73;101590.97;4902002;29;20132;-76
2022/05/31 06:28:15;;;;;;;0.40;0.40;;;;;;;12.65;78.21;101579.53;4898495;29;20088;-76
2022/05/31 06:30:44;;;;;;;2.15;0.60;;;;;;;12.61;78.56;101583.72;4907712;29;20052;-77
2022/05/31 06:33:12;;;;;;;0.70;0.50;;;;;;;12.58;78.85;101575.84;4896531;29;20045;-76
2022/05/31 06:35:41;;;;;;;0.65;0.60;;;;;;;12.57;80.39;101579.25;4887144;29;20487;-76
2022/05/31 06:38:09;;;;;;;1.58;0.68;;;;;;;12.54;80.41;101579.16;4900652;29;20053;-77
2022/05/31 06:40:39;;;;;;;3.33;0.60;;;;;;;12.54;81.20;101581.75;4888622;29;20056;-77
2022/05/31 06:43:09;;;;;;;2.17;1.20;;;;;;;12.54;82.79;101579.16;4900667;29;20048;-76
2022/05/31 06:45:38;;;;;;;0.73;0.45;;;;;;;12.54;81.62;101585.22;4885777;28;20493;-76
2022/05/31 06:48:07;;;;;;;2.40;0.47;;;;;;;12.52;79.73;101584.28;4892068;29;20492;-77
2022/05/31 06:50:36;;;;;;;0.70;0.50;;;;;;;12.52;82.01;101586.00;4896236;29;20519;-77
2022/05/31 06:58:35;;;;;;;2.92;0.60;;;;;;;12.48;83.62;101573.75;4895235;29;20043;-77
2022/05/31 07:01:05;;;;;;;1.17;0.43;;;;;;;12.46;83.42;101578.00;4886931;29;20413;-77
2022/05/31 07:03:34;;;;;;;0.77;0.57;;;;;;;12.41;82.61;101582.16;4892453;29;20060;-77
2022/05/31 07:06:02;;;;;;;1.40;0.65;;;;;;;12.40;83.33;101590.78;4883551;29;20105;-77
2022/05/31 07:08:31;;;;;;;1.25;0.68;;;;;;;12.41;83.40;101587.34;4892385;29;20101;-76
2022/05/31 07:10:59;;;;;;;0.80;0.55;;;;;;;12.41;81.26;101587.34;4894905;29;20053;-77
2022/05/31 07:13:36;;;;;;;1.30;0.50;;;;;;;12.41;82.29;101587.34;4888379;29;20123;-78
2022/05/31 07:16:05;;;;;;;1.08;0.50;;;;;;;12.41;81.26;101582.16;4890210;29;20123;-77
2022/05/31 07:18:33;;;;;;;2.50;0.40;;;;;;;12.36;82.85;101580.28;4890938;29;20060;-77
2022/05/31 07:21:03;;;;;;;3.22;0.50;;;;;;;12.35;87.06;101583.72;4890250;29;20113;-77
2022/05/31 07:23:32;;;;;;;1.05;0.55;;;;;;;12.35;86.22;101588.03;4899699;29;20059;-76
2022/05/31 07:26:02;;;;;;;1.80;0.60;;;;;;;12.35;84.19;101593.22;4900777;29;20097;-77
2022/05/31 07:28:30;;;;;;;0.73;0.43;;;;;;;12.34;82.59;101597.50;4894675;29;20053;-77
2022/05/31 07:31:01;;;;;;;0.85;0.52;;;;;;;12.35;83.54;101588.03;4896179;29;20053;-77
2022/05/31 07:33:29;;;;;;;2.40;0.68;;;;;;;12.32;83.76;101588.81;4893773;29;20108;-77
2022/05/31 07:35:58;;;;;;;0.65;0.40;;;;;;;12.34;83.34;101592.31;4898479;29;20443;-79
2022/05/31 07:38:26;;;;;;;3.05;1.25;;;;;;;12.34;83.82;101591.44;4899882;29;20101;-77
2022/05/31 07:40:55;;;;;;;1.42;0.40;;;;;;;12.32;84.29;101588.81;4884907;29;20049;-76
2022/05/31 07:43:23;;;;;;;0.95;0.50;;;;;;;12.30;84.62;101593.06;4894713;29;20060;-78
2022/05/31 07:46:00;;;;;;;3.03;0.50;;;;;;;12.28;85.58;101586.91;4890199;28;20069;-77
2022/05/31 07:48:30;;;;;;;0.68;0.55;;;;;;;12.26;85.63;101587.69;4888014;29;20053;-76
2022/05/31 07:50:58;;;;;;;1.48;0.70;;;;;;;12.23;83.36;101580.69;4886840;29;20049;-77
2022/05/31 07:53:27;;;;;;;3.78;0.63;;;;;;;12.20;83.66;101577.97;4893871;29;20084;-77
2022/05/31 07:55:56;;;;;;;1.92;0.60;;;;;;;12.15;83.87;101572.59;4892579;29;20049;-76
2022/05/31 07:58:34;;;;;;;3.38;0.50;;;;;;;12.14;84.07;101577.75;4892156;29;20065;-77
2022/05/31 08:01:04;;;;;;;1.58;0.65;;;;;;;12.09;83.54;101584.47;4886524;29;20067;-78
2022/05/31 08:03:35;;;;;;;1.85;0.50;;;;;;;12.04;83.90;101579.13;4886850;29;20064;-76
2022/05/31 08:06:08;;;;;;;0.88;0.43;;;;;;;12.02;84.42;101572.97;4890202;29;20049;-78
2022/05/31 08:08:37;;;;;;;1.00;0.38;;;;;;;12.03;84.23;101563.53;4904451;29;20056;-76
2022/05/31 08:11:07;;;;;;;2.20;0.70;;;;;;;12.00;83.71;101569.44;4894122;29;20125;-77
2022/05/31 08:13:36;;;;;;;2.70;0.80;;;;;;;11.99;83.74;101572.00;4898361;29;20040;-77
2022/05/31 08:16:07;;;;;;;1.27;0.60;;;;;;;11.95;83.50;101578.78;4897481;29;20559;-78
2022/05/31 08:18:45;;;;;;;0.73;0.52;;;;;;;11.93;84.21;101576.16;4894985;29;20063;-77
2022/05/31 08:21:17;;;;;;;4.88;1.02;;;;;;;11.92;83.81;101568.31;4893058;29;20496;-77
2022/05/31 08:23:46;;;;;;;2.97;0.70;;;;;;;11.91;84.84;101584.66;4898504;29;20048;-78
2022/05/31 08:26:14;;;;;;;2.67;0.88;;;;;;;11.89;85.22;101578.56;4885008;29;20048;-77
2022/05/31 08:28:43;;;;;;;1.25;0.68;;;;;;;11.85;84.68;101577.53;4895637;29;20080;-79
2022/05/31 08:31:13;;;;;;;4.00;0.70;;;;;;;11.85;84.38;101579.25;4896572;29;20056;-79
2022/05/31 08:33:43;;;;;;;0.90;0.60;;;;;;;11.81;84.49;101588.59;4895021;29;20052;-79
2022/05/31 08:36:12;;;;;;;1.00;0.60;;;;;;;11.77;83.62;101594.50;4893183;29;20041;-79
2022/05/31 08:38:42;;;;;;;1.13;0.63;;;;;;;11.68;84.25;101584.69;4895811;29;20104;-79
2022/05/31 08:41:23;;;;;;;0.52;0.43;;;;;;;11.63;84.97;101588.78;4891514;29;20044;-80
2022/05/31 08:44:05;;;;;;;2.53;0.60;;;;;;;11.62;85.86;101601.72;4878004;29;20512;-80
2022/05/31 08:46:51;;;;;;;1.40;0.60;;;;;;;11.58;84.93;101597.22;4891031;28;20052;-80
2022/05/31 08:51:52;;;;;;;1.17;0.68;;;;;;;11.56;84.08;101604.94;4877010;29;20057;-78
2022/05/31 08:52:27;;;;;;;2.60;0.50;;;;;;;11.55;84.15;101604.88;4886425;29;20052;-79
2022/05/31 08:57:52;;;;;;;1.52;0.63;;;;;;;11.57;85.19;101603.22;4881959;29;20231;-80
2022/05/31 09:00:25;;;;;;;1.08;0.60;;;;;;;11.55;86.45;101605.75;4879475;29;20061;-78
2022/05/31 09:02:59;;;;;;;2.08;1.05;;;;;;;11.56;86.47;101607.50;4881177;29;20061;-78
2022/05/31 09:05:31;;;;;;;1.30;0.60;;;;;;;11.60;86.14;101621.50;4893698;29;20522;-78
2022/05/31 09:08:07;;;;;;;1.13;0.70;;;;;;;11.61;86.06;101607.69;4900659;29;20705;-78
2022/05/31 09:10:42;;;;;;;2.40;0.70;;;;;;;11.61;86.48;101607.69;4878084;29;20129;-79
2022/05/31 09:13:17;;;;;;;0.98;0.50;;;;;;;11.60;86.62;101601.63;4877413;29;20045;-79
2022/05/31 09:15:50;;;;;;;1.75;0.60;;;;;;;11.62;87.54;101601.72;4897264;29;20139;-79
2022/05/31 09:18:23;;;;;;;1.60;0.70;;;;;;;11.62;88.04;101605.16;4876539;29;20049;-80
2022/05/31 09:20:56;;;;;;;1.15;0.50;;;;;;;11.63;88.12;101598.28;4877069;29;20115;-79
2022/05/31 09:23:28;;;;;;;1.83;0.52;;;;;;;11.56;92.09;101606.63;4895818;29;20063;-80
2022/05/31 09:26:11;;;;;;;0.82;0.73;;;;;;;11.48;97.14;101608.94;4901675;29;20553;-79
2022/05/31 09:28:49;;;;;;;0.47;0.40;;;;;;;11.42;94.97;101606.97;4879727;29;20045;-79
2022/05/31 09:31:29;;;;;;;0.70;0.55;;;;;;;11.39;94.40;101606.88;4889762;29;20052;-79
2022/05/31 09:34:11;;;;;;;2.45;0.47;;;;;;;11.35;93.85;101609.28;4878273;29;20049;-78
2022/05/31 09:36:51;;;;;;;0.80;0.40;;;;;;;11.32;93.10;101602.25;4899669;29;20048;-78
2022/05/31 09:39:31;;;;;;;2.22;0.80;;;;;;;11.33;92.75;101609.19;4893530;29;20049;-78
2022/05/31 09:42:05;;;;;;;1.15;0.68;;;;;;;11.35;93.06;101601.50;4902580;29;20486;-78
2022/05/31 09:44:39;;;;;;;2.17;0.63;;;;;;;11.29;92.61;101604.72;4896962;29;20871;-78
2022/05/31 09:47:16;;;;;;;3.55;0.70;;;;;;;11.24;93.39;101601.06;4899929;29;20629;-78
2022/05/31 09:49:46;;;;;;;0.68;0.50;;;;;;;11.25;94.86;101610.63;4902260;29;20132;-79
2022/05/31 09:52:22;;;;;;;1.27;0.60;;;;;;;11.20;96.64;101602.66;4898804;29;20052;-79
2022/05/31 09:58:02;;;;;;;0.68;0.55;;;;;;;11.12;96.40;101604.03;4907287;29;20083;-77
2022/05/31 10:00:31;;;;;;;1.10;0.70;;;;;;;11.07;96.31;101606.44;4896662;29;20100;-78
2022/05/31 10:03:05;;;;;;;0.80;0.60;;;;;;;11.04;97.22;101606.34;4894112;29;20052;-78
2022/05/31 10:05:34;;;;;;;0.95;0.43;;;;;;;11.01;98.84;101603.59;4900204;29;20056;-77
2022/05/31 10:08:05;;;;;;;0.77;0.40;;;;;;;11.00;99.12;101601.84;4906993;29;20052;-78
2022/05/31 10:10:36;;;;;;;1.38;0.63;;;;;;;11.00;98.74;101607.03;4898313;29;20053;-78
2022/05/31 10:13:09;;;;;;;4.00;0.70;;;;;;;10.99;99.85;101607.81;4881659;29;20080;-79
2022/05/31 10:15:51;;;;;;;0.95;0.60;;;;;;;10.96;100.00;101610.28;4902162;29;20052;-77
2022/05/31 10:18:31;;;;;;;0.68;0.55;;;;;;;10.95;100.00;101615.41;4885987;29;20475;-78
2022/05/31 10:21:02;;;;;;;1.33;0.60;;;;;;;10.95;99.15;101612.81;4897462;29;20053;-78
2022/05/31 10:23:38;;;;;;;2.38;0.60;;;;;;;10.96;99.46;101612.00;4899785;29;20504;-78
2022/05/31 10:26:07;;;;;;;1.05;0.60;;;;;;;11.00;100.00;101612.19;4898814;29;20688;-77
2022/05/31 10:28:41;;;;;;;1.90;0.85;;;;;;;11.02;99.98;101601.91;4890558;29;20453;-77
2022/05/31 10:31:20;;;;;;;1.05;0.70;;;;;;;11.00;100.00;101609.59;4890335;29;20092;-78
2022/05/31 10:33:55;;;;;;;0.77;0.55;;;;;;;10.99;100.00;101610.41;4885917;29;20057;-77
2022/05/31 10:36:26;;;;;;;0.70;0.50;;;;;;;10.97;100.00;101599.13;4888188;29;20496;-77
2022/05/31 10:39:12;;;;;;;1.10;0.70;;;;;;;10.99;100.00;101601.75;4906071;29;20056;-77
2022/05/31 10:41:41;;;;;;;1.23;0.63;;;;;;;11.01;99.80;101601.00;4897424;29;20060;-77
2022/05/31 10:44:18;;;;;;;0.80;0.70;;;;;;;10.94;99.25;101592.94;4903961;29;20048;-78
2022/05/31 10:47:00;;;;;;;1.08;0.73;;;;;;;10.92;100.00;101585.09;4882845;28;20057;-78
2022/05/31 10:49:29;;;;;;;2.08;0.85;;;;;;;10.91;100.00;101578.16;4880449;29;20411;-78
2022/05/31 10:52:07;;;;;;;2.58;0.50;;;;;;;10.89;100.00;101574.63;4893126;29;20739;-78
2022/05/31 10:55:01;;;;;;;1.33;0.70;;;;;;;10.94;100.00;101572.22;4895354;29;20499;-78
2022/05/31 10:57:43;;;;;;;0.73;0.60;;;;;;;10.96;100.00;101568.88;4875584;29;20575;-77
2022/05/31 11:00:18;;;;;;;3.65;0.95;;;;;;;11.00;100.00;101563.00;4891400;29;20048;-78
2022/05/31 11:03:19;;;;;;;1.40;0.80;;;;;;;11.04;100.00;101554.53;4894882;29;20079;-77
2022/05/31 11:05:59;;;;;;;3.35;1.13;;;;;;;11.06;100.00;101558.06;4885135;29;20045;-78
2022/05/31 11:11:43;;;;;;;2.17;0.50;;;;;;;11.10;100.00;101565.13;4894368;29;20451;-78
2022/05/31 11:14:43;;;;;;;1.90;0.90;;;;;;;11.15;100.00;101560.13;4883741;29;20052;-78
2022/05/31 11:17:29;;;;;;;2.25;0.93;;;;;;;11.19;100.00;101554.25;4890173;29;20112;-77
2022/05/31 11:20:06;;;;;;;2.88;0.70;;;;;;;11.22;100.00;101564.72;4896024;29;20059;-78
2022/05/31 11:22:51;;;;;;;4.00;0.90;;;;;;;11.22;100.00;101561.25;4888404;29;20056;-78
2022/05/31 11:25:43;;;;;;;2.25;0.80;;;;;;;11.24;99.99;101563.06;4893132;29;20104;-78
2022/05/31 11:28:29;;;;;;;2.30;0.80;;;;;;;11.27;99.75;101562.31;4890266;29;20056;-78
2022/05/31 11:31:13;;;;;;;2.28;0.90;;;;;;;11.30;100.00;101559.88;4902296;29;20052;-79
2022/05/31 11:34:07;;;;;;;3.85;1.25;;;;;;;11.32;100.00;101560.81;4898237;29;20063;-78
2022/05/31 11:36:54;;;;;;;2.90;1.10;;;;;;;11.35;99.69;101555.75;4889536;29;20056;-77
2022/05/31 11:39:37;;;;;;;3.50;1.30;;;;;;;11.33;99.40;101541.84;4893394;29;20048;-79
2022/05/31 11:42:18;;;;;;;2.17;1.05;;;;;;;11.40;99.73;101555.91;4892219;29;20560;-78
2022/05/31 11:45:17;;;;;;;1.83;1.25;;;;;;;11.44;100.00;101548.31;4895403;29;20543;-78
2022/05/31 11:48:19;;;;;;;1.98;1.10;;;;;;;11.46;100.00;101549.25;4905622;29;20048;-80
2022/05/31 11:50:59;;;;;;;1.92;0.88;;;;;;;11.46;100.00;101549.25;4900091;29;20048;-79
2022/05/31 11:53:50;;;;;;;1.40;0.93;;;;;;;11.44;100.00;101550.03;4901102;29;20059;-78
2022/05/31 11:56:27;;;;;;;2.42;1.10;;;;;;;11.37;100.00;101545.44;4887624;29;20056;-78
2022/05/31 11:59:03;;;;;;;2.50;1.00;;;;;;;11.38;100.00;101544.59;4894010;29;20090;-78
2022/05/31 12:01:39;;;;;;;1.33;0.90;;;;;;;11.40;100.00;101546.44;4887157;29;20120;-79
2022/05/31 12:04:12;;;;;;;2.00;1.13;;;;;;;11.43;100.00;101549.16;4891930;29;20527;-78
2022/05/31 12:06:46;;;;;;;1.35;0.65;;;;;;;11.45;100.00;101563.06;4902481;29;20049;-79
2022/05/31 12:09:20;;;;;;;1.17;0.93;;;;;;;11.41;100.00;101553.41;4894486;29;20049;-79
2022/05/31 12:11:54;;;;;;;3.97;0.88;;;;;;;11.39;100.00;101562.81;4895514;29;20053;-79